createdAt,value
2022-11-29T00:01:06.057Z,97539.41
2022-11-29T00:05:11.316Z,97540.47
2022-11-29T00:09:15.179Z,97550.00
2022-11-29T00:13:19.291Z,97546.03
2022-11-29T00:17:22.864Z,97534.53
2022-11-29T00:21:28.098Z,97542.56
2022-11-29T00:25:31.563Z,97542.81
2022-11-29T00:29:35.072Z,97543.84
2022-11-29T00:33:38.501Z,97529.69
2022-11-29T00:37:43.449Z,97533.34
2022-11-29T00:41:47.174Z,97530.47
2022-11-29T00:45:50.773Z,97527.28
2022-11-29T00:49:53.833Z,97515.25
2022-11-29T00:53:58.794Z,97530.59
2022-11-29T00:58:02.300Z,97537.88
2022-11-29T01:02:05.377Z,97525.38
2022-11-29T01:06:12.185Z,97535.91
2022-11-29T01:10:17.554Z,97533.47
2022-11-29T01:14:20.669Z,97536.88
2022-11-29T01:18:24.101Z,97536.63
2022-11-29T01:22:27.634Z,97540.59
2022-11-29T01:26:32.708Z,97548.75
2022-11-29T01:30:36.267Z,97541.50
2022-11-29T01:34:40.038Z,97544.50
2022-11-29T01:38:44.246Z,97545.66
2022-11-29T01:42:48.861Z,97542.59
2022-11-29T01:46:52.734Z,97543.84
2022-11-29T01:51:00.043Z,97540.78
2022-11-29T01:55:07.444Z,97539.47
2022-11-29T01:59:16.038Z,97531.22
2022-11-29T02:03:20.078Z,97536.13
2022-11-29T02:07:23.621Z,97540.00
2022-11-29T02:11:46.628Z,97542.22
2022-11-29T02:15:59.077Z,97539.25
2022-11-29T02:20:42.506Z,97538.19
2022-11-29T02:25:01.770Z,97541.22
2022-11-29T02:29:32.458Z,97541.78
2022-11-29T02:34:09.300Z,97549.13
2022-11-29T02:38:28.972Z,97543.72
2022-11-29T02:43:02.410Z,97547.00
2022-11-29T02:47:15.790Z,97549.19
2022-11-29T02:51:27.953Z,97554.22
2022-11-29T02:55:40.451Z,97553.03
2022-11-29T02:59:52.487Z,97558.19
2022-11-29T03:04:08.850Z,97563.09
2022-11-29T03:08:21.722Z,97558.75
2022-11-29T03:12:31.574Z,97564.75
2022-11-29T03:16:44.893Z,97564.75
2022-11-29T03:21:00.098Z,97566.38
2022-11-29T03:25:10.802Z,97568.00
2022-11-29T03:29:24.927Z,97574.81
2022-11-29T03:33:36.818Z,97577.41
2022-11-29T03:37:49.473Z,97581.59
2022-11-29T03:42:00.655Z,97582.44
2022-11-29T03:46:07.582Z,97585.13
2022-11-29T03:50:17.580Z,97584.31
2022-11-29T03:54:26.133Z,97586.91
2022-11-29T03:58:44.407Z,97591.94
2022-11-29T04:03:27.575Z,97590.31
2022-11-29T04:07:46.037Z,97592.63
2022-11-29T04:12:21.459Z,97591.94
2022-11-29T04:17:03.024Z,97604.13
2022-11-29T04:21:36.763Z,97602.50
2022-11-29T04:26:21.035Z,97605.78
2022-11-29T04:30:25.469Z,97605.78
2022-11-29T04:34:51.673Z,97610.97
2022-11-29T04:39:29.265Z,97610.84
2022-11-29T04:43:47.118Z,97618.44
2022-11-29T04:48:04.047Z,97621.03
2022-11-29T04:52:33.937Z,97621.72
2022-11-29T04:56:42.560Z,97624.03
2022-11-29T05:00:57.517Z,97623.22
2022-11-29T05:05:15.532Z,97624.88
2022-11-29T05:09:30.963Z,97627.44
2022-11-29T05:13:47.199Z,97628.25
2022-11-29T05:18:00.533Z,97629.19
2022-11-29T05:22:21.927Z,97628.50
2022-11-29T05:26:33.121Z,97633.94
2022-11-29T05:30:55.782Z,97629.03
2022-11-29T05:35:35.191Z,97641.34
2022-11-29T05:39:47.451Z,97639.84
2022-11-29T05:44:04.677Z,97643.50
2022-11-29T05:48:15.547Z,97642.81
2022-11-29T05:52:26.172Z,97646.47
2022-11-29T05:56:46.618Z,97655.13
2022-11-29T06:00:58.543Z,97658.66
2022-11-29T06:05:12.242Z,97655.13
2022-11-29T06:09:22.668Z,97663.81
2022-11-29T06:13:38.364Z,97658.66
2022-11-29T06:18:07.929Z,97662.19
2022-11-29T06:22:30.224Z,97656.91
2022-11-29T06:26:48.683Z,97658.66
2022-11-29T06:31:02.696Z,97663.81
2022-11-29T06:35:19.681Z,97667.34
2022-11-29T06:39:23.783Z,97676.06
2022-11-29T06:43:27.787Z,97672.63
2022-11-29T06:47:38.824Z,97673.47
2022-11-29T06:51:53.697Z,97670.88
2022-11-29T06:56:06.455Z,97662.94
2022-11-29T07:00:14.598Z,97677.44
2022-11-29T07:04:34.685Z,97672.50
2022-11-29T07:08:41.404Z,97691.25
2022-11-29T07:12:45.782Z,97690.47
2022-11-29T07:16:57.779Z,97692.69
2022-11-29T07:21:14.017Z,97699.34
2022-11-29T07:25:27.949Z,97695.69
2022-11-29T07:29:42.181Z,97705.53
2022-11-29T07:33:55.855Z,97701.75
2022-11-29T07:38:10.693Z,97700.66
2022-11-29T07:42:21.839Z,97703.84
2022-11-29T07:46:26.287Z,97708.75
2022-11-29T07:50:30.614Z,97713.53
2022-11-29T07:54:34.289Z,97713.28
2022-11-29T07:58:39.289Z,97711.97
2022-11-29T08:02:43.214Z,97708.19
2022-11-29T08:06:46.964Z,97706.97
2022-11-29T08:10:50.400Z,97709.31
2022-11-29T08:14:55.477Z,97723.94
2022-11-29T08:19:00.275Z,97709.69
2022-11-29T08:23:04.073Z,97718.69
2022-11-29T08:27:07.762Z,97705.28
2022-11-29T08:31:14.787Z,97694.47
2022-11-29T08:35:18.625Z,97711.31
2022-11-29T08:39:22.228Z,97710.66
2022-11-29T08:43:25.742Z,97716.50
2022-11-29T08:47:40.642Z,97719.09
2022-11-29T08:51:43.794Z,97733.00
2022-11-29T08:55:47.520Z,97731.69
2022-11-29T08:59:51.372Z,97733.88
2022-11-29T09:04:03.686Z,97738.78
2022-11-29T09:08:06.837Z,97732.53
2022-11-29T09:12:10.399Z,97732.97
2022-11-29T09:16:18.168Z,97731.50
2022-11-29T09:20:23.299Z,97723.75
2022-11-29T09:24:26.835Z,97726.78
2022-11-29T09:28:29.861Z,97735.13
2022-11-29T09:32:33.328Z,97732.94
2022-11-29T09:36:38.523Z,97732.94
2022-11-29T09:40:48.532Z,97724.25
2022-11-29T09:45:02.221Z,97725.63
2022-11-29T09:49:29.719Z,97736.00
2022-11-29T09:53:46.902Z,97720.75
2022-11-29T09:57:52.490Z,97736.00
2022-11-29T10:02:02.024Z,97736.16
2022-11-29T10:06:13.482Z,97736.59
2022-11-29T10:10:23.794Z,97725.00
2022-11-29T10:14:33.153Z,97724.59
2022-11-29T10:18:40.238Z,97720.22
2022-11-29T10:22:53.951Z,97717.50
2022-11-29T10:26:59.569Z,97716.66
2022-11-29T10:31:10.393Z,97707.06
2022-11-29T10:35:15.659Z,97701.06
2022-11-29T10:39:25.136Z,97698.28
2022-11-29T10:43:30.115Z,97704.25
2022-11-29T10:47:33.977Z,97696.06
2022-11-29T10:51:37.084Z,97706.56
2022-11-29T10:55:46.025Z,97702.72
2022-11-29T11:00:04.672Z,97697.66
2022-11-29T11:04:11.420Z,97700.53
2022-11-29T11:08:18.671Z,97700.28
2022-11-29T11:12:25.716Z,97702.22
2022-11-29T11:16:35.583Z,97701.00
2022-11-29T11:20:45.117Z,97694.47
2022-11-29T11:24:48.592Z,97697.34
2022-11-29T11:28:56.759Z,97699.53
2022-11-29T11:33:22.032Z,97693.00
2022-11-29T11:37:27.815Z,97688.38
2022-11-29T11:41:46.716Z,97690.69
2022-11-29T11:45:55.087Z,97685.22
2022-11-29T11:50:14.000Z,97695.03
2022-11-29T11:54:18.341Z,97686.28
2022-11-29T11:58:24.676Z,97697.72
2022-11-29T12:02:30.461Z,97696.75
2022-11-29T12:06:43.338Z,97694.16
2022-11-29T12:10:47.555Z,97692.25
2022-11-29T12:14:57.966Z,97701.94
2022-11-29T12:19:07.279Z,97691.19
2022-11-29T12:23:32.855Z,97696.66
2022-11-29T12:27:36.017Z,97692.59
2022-11-29T12:32:08.538Z,97672.13
2022-11-29T12:36:27.465Z,97690.94
2022-11-29T12:40:40.132Z,97634.16
2022-11-29T12:44:53.204Z,97679.09
2022-11-29T12:49:07.482Z,97683.38
2022-11-29T12:53:27.332Z,97693.84
2022-11-29T12:57:39.742Z,97700.00
2022-11-29T13:02:00.266Z,97699.31
2022-11-29T13:06:25.863Z,97698.63
2022-11-29T13:10:39.534Z,97704.09
2022-11-29T13:14:53.079Z,97696.31
2022-11-29T13:19:03.671Z,97698.91
2022-11-29T13:23:18.437Z,97705.72
2022-11-29T13:27:27.785Z,97709.00
2022-11-29T13:31:33.097Z,97703.81
2022-11-29T13:35:40.722Z,97698.63
2022-11-29T13:40:01.184Z,97712.81
2022-11-29T13:44:13.055Z,97719.94
2022-11-29T13:48:36.793Z,97716.66
2022-11-29T13:52:42.457Z,97720.22
2022-11-29T13:56:47.135Z,97714.19
2022-11-29T14:00:53.953Z,97721.16
2022-11-29T14:04:58.989Z,97722.94
2022-11-29T14:09:26.635Z,97725.81
2022-11-29T14:13:35.395Z,97719.41
2022-11-29T14:17:51.842Z,97731.94
2022-11-29T14:22:23.426Z,97723.78
2022-11-29T14:26:29.404Z,97724.31
2022-11-29T14:30:52.417Z,97718.63
2022-11-29T14:35:01.222Z,97730.88
2022-11-29T14:39:20.416Z,97727.88
2022-11-29T14:43:28.578Z,97739.59
2022-11-29T14:47:37.319Z,97735.50
2022-11-29T14:51:41.222Z,97747.22
2022-11-29T14:55:45.761Z,97751.19
2022-11-29T14:59:52.978Z,97742.41
2022-11-29T15:03:58.564Z,97741.72
2022-11-29T15:08:10.974Z,97762.38
2022-11-29T15:12:20.786Z,97761.84
2022-11-29T15:16:39.866Z,97771.34
2022-11-29T15:20:59.054Z,97787.91
2022-11-29T15:25:07.269Z,97789.03
2022-11-29T15:29:17.178Z,97795.41
2022-11-29T15:33:23.349Z,97793.28
2022-11-29T15:37:43.272Z,97791.09
2022-11-29T15:41:47.000Z,97791.44
2022-11-29T15:45:53.388Z,97781.41
2022-11-29T15:49:56.453Z,97779.81
2022-11-29T15:54:12.737Z,97783.16
2022-11-29T15:58:18.335Z,97784.72
2022-11-29T16:02:26.166Z,97782.63
2022-11-29T16:06:36.197Z,97789.78
2022-11-29T16:10:47.516Z,97794.50
2022-11-29T16:14:52.947Z,97794.75
2022-11-29T16:19:13.928Z,97793.22
2022-11-29T16:23:17.110Z,97793.47
2022-11-29T16:27:22.462Z,97791.00
2022-11-29T16:31:33.173Z,97792.63
2022-11-29T16:35:38.053Z,97803.91
2022-11-29T16:39:41.438Z,97808.34
2022-11-29T16:43:55.291Z,97811.78
2022-11-29T16:47:59.740Z,97816.09
2022-11-29T16:52:24.460Z,97823.03
2022-11-29T16:56:30.395Z,97813.53
2022-11-29T17:04:59.226Z,97832.06
2022-11-29T17:09:04.842Z,97835.03
2022-11-29T17:13:11.113Z,97838.66
2022-11-29T17:17:16.414Z,97831.25
2022-11-29T17:21:20.102Z,97824.69
2022-11-29T17:25:24.868Z,97837.72
2022-11-29T17:29:27.991Z,97837.84
2022-11-29T17:33:31.774Z,97844.78
2022-11-29T17:37:35.370Z,97844.78
2022-11-29T17:41:40.444Z,97844.78
2022-11-29T17:45:43.612Z,97846.63
2022-11-29T17:49:47.610Z,97845.56
2022-11-29T17:53:52.807Z,97853.44
2022-11-29T17:57:58.870Z,97862.94
2022-11-29T18:02:04.307Z,97862.13
2022-11-29T18:06:09.975Z,97860.72
2022-11-29T18:10:13.910Z,97871.28
2022-11-29T18:14:21.656Z,97865.47
2022-11-29T18:18:29.718Z,97874.28
2022-11-29T18:22:33.307Z,97869.34
2022-11-29T18:26:38.208Z,97876.53
2022-11-29T18:30:43.072Z,97889.63
2022-11-29T18:34:48.126Z,97891.63
2022-11-29T18:38:57.131Z,97882.47
2022-11-29T18:43:01.086Z,97888.09
2022-11-29T18:47:05.721Z,97895.13
2022-11-29T18:51:13.216Z,97906.69
2022-11-29T18:55:17.568Z,97904.50
2022-11-29T18:59:23.576Z,97905.06
2022-11-29T19:03:30.089Z,97907.34
2022-11-29T19:07:38.443Z,97902.78
2022-11-29T19:11:42.205Z,97911.19
2022-11-29T19:15:45.719Z,97913.38
2022-11-29T19:19:50.405Z,97910.41
2022-11-29T19:23:54.709Z,97911.06
2022-11-29T19:28:00.604Z,97916.91
2022-11-29T19:32:04.494Z,97915.72
2022-11-29T19:36:17.879Z,97922.59
2022-11-29T19:40:23.261Z,97923.66
2022-11-29T19:44:30.021Z,97927.22
2022-11-29T19:48:33.274Z,97936.72
2022-11-29T19:52:38.212Z,97933.44
2022-11-29T19:56:42.047Z,97933.53
2022-11-29T20:00:45.649Z,97937.16
2022-11-29T20:04:49.895Z,97951.88
2022-11-29T20:08:55.438Z,97941.09
2022-11-29T20:12:59.005Z,97943.16
2022-11-29T20:17:03.062Z,97948.75
2022-11-29T20:21:08.001Z,97951.03
2022-11-29T20:25:13.972Z,97940.59
2022-11-29T20:29:18.602Z,97960.22
2022-11-29T20:33:25.098Z,97962.56
2022-11-29T20:37:55.968Z,97971.03
2022-11-29T20:42:20.601Z,97979.34
2022-11-29T20:46:26.164Z,97972.25
2022-11-29T20:50:32.207Z,97979.47
2022-11-29T20:54:35.307Z,97973.78
2022-11-29T20:58:40.948Z,97972.75
2022-11-29T21:02:44.050Z,97987.88
2022-11-29T21:06:47.550Z,97977.19
2022-11-29T21:10:52.613Z,97976.06
2022-11-29T21:14:58.011Z,97968.03
2022-11-29T21:19:04.034Z,97982.13
2022-11-29T21:23:15.723Z,97976.78
2022-11-29T21:27:27.427Z,97959.38
2022-11-29T21:31:33.116Z,97976.88
2022-11-29T21:35:38.692Z,97969.28
2022-11-29T21:39:41.767Z,97974.41
2022-11-29T21:44:13.666Z,97971.09
2022-11-29T21:48:32.197Z,97972.84
2022-11-29T21:52:35.554Z,97970.38
2022-11-29T21:56:39.253Z,97973.16
2022-11-29T22:00:43.189Z,97978.50
2022-11-29T22:04:50.304Z,97953.31
2022-11-29T22:08:53.440Z,97968.22
2022-11-29T22:12:57.061Z,97977.56
2022-11-29T22:17:04.647Z,97973.16
2022-11-29T22:21:09.337Z,97973.56
2022-11-29T22:25:13.234Z,97969.78
2022-11-29T22:29:17.522Z,97971.00
2022-11-29T22:33:22.124Z,97970.31
2022-11-29T22:37:27.216Z,97980.00
2022-11-29T22:41:30.413Z,97968.25
2022-11-29T22:45:33.947Z,97978.63
2022-11-29T22:49:37.628Z,97979.47
2022-11-29T22:53:44.520Z,97981.19
2022-11-29T22:57:47.979Z,97978.81
2022-11-29T23:01:51.229Z,97967.47
2022-11-29T23:05:54.922Z,97967.53
2022-11-29T23:09:59.905Z,97975.66
2022-11-29T23:14:03.700Z,97967.22
2022-11-29T23:18:07.137Z,97981.94
2022-11-29T23:22:10.315Z,97978.19
2022-11-29T23:26:21.270Z,97983.88
2022-11-29T23:30:24.781Z,97983.88
2022-11-29T23:34:29.048Z,97990.66
2022-11-29T23:38:33.135Z,97978.72
2022-11-29T23:42:39.202Z,97978.72
2022-11-29T23:46:44.670Z,97984.06
2022-11-29T23:50:48.267Z,97979.97
2022-11-29T23:54:52.089Z,97978.41
2022-11-29T23:58:57.110Z,97976.78
